Blairsville, GA (30512)

5:30 AM EST on December 08, 2016 (GMT -0500)
Old England | | Change Station

Elev 1883 ft 34.90 °N, 84.03 °W | Updated 27 seconds ago

Partly Cloudy
Partly Cloudy
38.9 °F
Feels Like 34 °F
N
7.0
Wind Variable Wind from NNW
Gusts 7.0 mph

Today
High -- | Low -- °F
--% Chance of Precip.
Yesterday
High -- | Low -- °F
Precip. -- in
Pressure 30.12 in
Visibility 10.0 miles
Clouds Mostly Cloudy 2500 ft
Mostly Cloudy 3400 ft
Overcast 6500 ft
Windchill 34 °F
Dew Point 35 °F
Humidity 87%
Rainfall 0.00 in
Snow Depth Not available.
7:31 AM 5:24 PM
First Quarter, 62% visible
METAR KRHP 081005Z AUTO 22003KT 10SM BKN025 BKN034 OVC065 04/04 A3012 RMK AO2 T00430040
Pressure 30.12 in
Visibility 10.0 miles
Clouds Mostly Cloudy 2500 ft
Mostly Cloudy 3400 ft
Overcast 6500 ft
Windchill 34 °F
Dew Point 35 °F
Humidity 87%
Rainfall 0.00 in
Snow Depth Not available.
7:31 AM 5:24 PM
First Quarter, 62% visible
METAR KRHP 081005Z AUTO 22003KT 10SM BKN025 BKN034 OVC065 04/04 A3012 RMK AO2 T00430040

10-Day Weather Forecast

Almanac

Astronomy

Dec. 08, 2016 Rise Set
Actual Time
Civil Twilight
Nautical Twilight
Astronomical Twilight
Moon
Length of Visible Light
Length of Day
Tomorrow will be .
, % of the Moon is Illuminated

Today's Extremes

State Highs State Lows

Community

WunderPhotos

Upload Photos

1,956,261 photos uploaded!

WunderBlog® & News

Nearby

Air Quality

  Air Quality AQ Index Pollutant
Not available.

Snow Depth

Station Depth Elevation

Earthquake Activity

City Distance Mag. Time & Date
Minimum magnitude displayed is 2.5.

Coastal Water Temperatures

Place Temperature

Stations

Nearby Weather Stations

Station Location Temp. Windchill Dew Point Humidity Wind Precip. Elev Updated Type
                   

Watches & Warnings

There are currently no watches in effect.